EDW22 LSZH-MDPP
Flight info
| Callsign | EDW22 |
|---|---|
| Flight time | N/A |
| Altitude | 34000 |
| Route | VEBIT T10 TORPA DCT REKLA DCT RLP DCT ROTSI/N0486F380 DCT AMODO DCT COHPA UM729 RESMI UN491 EKRAS UN585 UPALO/N0489F370 UN585 FEJAC DCT REGHI/M085F380 DCT ETIKI DCT 47N015W 46N020W 45N030W 40N040W/M085F400 35N050W DCT SIFEN M596 WATRS/N0487F400 M596 POKEG POKEG2S |
| Aircraft | A359/H-SABDE2E3GHIJ2J3J4J5M1P2RWXYZ/LB1D1 |
Departure
| Time | 2026-05-05 06:22 |
|---|---|
| Airport | Zürich Airport (LSZH) |
Arrival
| Time | N/A |
|---|---|
| Airport | Gregorio Luperon International Airport (MDPP) |
| Time | Latitude | Longitude | Altitude | Speed | Heading |
|---|---|---|---|---|---|
| 2026-05-05 06:15 | 47.45971 | 8.55364 | 1401 ft | 1 kts | 96° |
| 2026-05-05 06:15 | 47.45967 | 8.55362 | 1401 ft | 0 kts | 96° |
| 2026-05-05 06:17 | 47.45967 | 8.55363 | 1400 ft | 1 kts | 96° |
| 2026-05-05 06:17 | 47.45964 | 8.55432 | 1410 ft | 11 kts | 92° |
| 2026-05-05 06:18 | 47.45960 | 8.55550 | 1404 ft | 12 kts | 94° |
| 2026-05-05 06:18 | 47.45952 | 8.55669 | 1409 ft | 11 kts | 96° |
| 2026-05-05 06:18 | 47.45944 | 8.55783 | 1409 ft | 11 kts | 96° |
| 2026-05-05 06:18 | 47.45928 | 8.55888 | 1413 ft | 10 kts | 118° |
| 2026-05-05 06:19 | 47.45868 | 8.55947 | 1414 ft | 11 kts | 148° |
| 2026-05-05 06:19 | 47.45837 | 8.56045 | 1410 ft | 10 kts | 99° |
| 2026-05-05 06:19 | 47.45829 | 8.56143 | 1416 ft | 10 kts | 96° |
| 2026-05-05 06:19 | 47.45820 | 8.56271 | 1407 ft | 16 kts | 96° |
| 2026-05-05 06:20 | 47.45807 | 8.56448 | 1413 ft | 18 kts | 96° |
| 2026-05-05 06:20 | 47.45793 | 8.56640 | 1413 ft | 19 kts | 96° |
| 2026-05-05 06:20 | 47.45779 | 8.56847 | 1411 ft | 21 kts | 96° |
| 2026-05-05 06:20 | 47.45776 | 8.56886 | 1402 ft | 6 kts | 96° |
| 2026-05-05 06:21 | 47.45766 | 8.56966 | 1404 ft | 8 kts | 108° |
| 2026-05-05 06:21 | 47.45724 | 8.57023 | 1412 ft | 9 kts | 162° |
| 2026-05-05 06:21 | 47.45681 | 8.57002 | 1408 ft | 5 kts | 232° |
| 2026-05-05 06:21 | 47.45669 | 8.56960 | 1405 ft | 4 kts | 254° |
| 2026-05-05 06:22 | 47.45669 | 8.56922 | 1405 ft | 5 kts | 272° |
| 2026-05-05 06:22 | 47.45691 | 8.56544 | 1411 ft | 77 kts | 276° |
| 2026-05-05 06:22 | 47.45778 | 8.55372 | 1410 ft | 151 kts | 276° |
| 2026-05-05 06:22 | 47.45898 | 8.53714 | 2038 ft | 161 kts | 276° |
| 2026-05-05 06:23 | 47.46022 | 8.51985 | 2700 ft | 179 kts | 276° |
| 2026-05-05 06:23 | 47.46141 | 8.49970 | 3121 ft | 213 kts | 271° |
| 2026-05-05 06:23 | 47.45731 | 8.47775 | 3193 ft | 236 kts | 238° |
| 2026-05-05 06:23 | 47.44741 | 8.45739 | 3409 ft | 253 kts | 232° |
| 2026-05-05 06:24 | 47.43630 | 8.43641 | 3780 ft | 264 kts | 232° |
| 2026-05-05 06:24 | 47.42485 | 8.41454 | 4297 ft | 266 kts | 232° |
| 2026-05-05 06:24 | 47.41362 | 8.39279 | 4875 ft | 267 kts | 233° |